createdAt,value
2019-05-06T00:00:04.748Z,20.89
2019-05-06T00:02:26.371Z,20.88
2019-05-06T00:04:47.974Z,20.86
2019-05-06T00:07:10.112Z,20.85
2019-05-06T00:09:31.758Z,20.83
2019-05-06T00:11:54.404Z,20.82
2019-05-06T00:14:16.371Z,20.80
2019-05-06T00:16:37.889Z,20.78
2019-05-06T00:18:59.982Z,20.76
2019-05-06T00:21:24.200Z,20.75
2019-05-06T00:23:44.997Z,20.74
2019-05-06T00:26:07.194Z,20.72
2019-05-06T00:28:28.930Z,20.71
2019-05-06T00:30:50.500Z,20.69
2019-05-06T00:33:13.592Z,20.67
2019-05-06T00:35:35.337Z,20.66
2019-05-06T00:37:57.577Z,20.67
2019-05-06T00:40:18.855Z,20.70
2019-05-06T00:42:40.557Z,20.72
2019-05-06T00:45:04.448Z,20.74
2019-05-06T00:47:25.569Z,20.77
2019-05-06T00:49:47.248Z,20.80
2019-05-06T00:52:08.601Z,20.83
2019-05-06T00:54:30.195Z,20.85
2019-05-06T00:56:54.126Z,20.87
2019-05-06T00:59:15.785Z,20.87
2019-05-06T01:01:37.480Z,20.89
2019-05-06T01:03:59.101Z,20.89
2019-05-06T01:06:20.705Z,20.89
2019-05-06T01:08:44.025Z,20.90
2019-05-06T01:11:07.095Z,20.91
2019-05-06T01:13:28.533Z,20.89
2019-05-06T01:15:50.101Z,20.88
2019-05-06T01:18:13.664Z,20.87
2019-05-06T01:20:35.031Z,20.88
2019-05-06T01:22:56.529Z,20.86
2019-05-06T01:25:17.845Z,20.85
2019-05-06T01:27:39.248Z,20.85
2019-05-06T01:30:00.880Z,20.85
2019-05-06T01:32:23.681Z,20.83
2019-05-06T01:34:45.662Z,20.82
2019-05-06T01:37:07.749Z,20.82
2019-05-06T01:39:30.181Z,20.80
2019-05-06T01:41:53.526Z,20.78
2019-05-06T01:44:15.127Z,20.77
2019-05-06T01:46:36.424Z,20.75
2019-05-06T01:48:58.331Z,20.75
2019-05-06T01:51:19.996Z,20.75
2019-05-06T01:53:41.928Z,20.73
2019-05-06T01:56:03.683Z,20.72
2019-05-06T01:58:25.676Z,20.71
2019-05-06T02:00:47.063Z,20.69
2019-05-06T02:03:09.236Z,20.67
2019-05-06T02:05:30.805Z,20.66
2019-05-06T02:07:54.928Z,20.64
2019-05-06T02:10:15.648Z,20.63
2019-05-06T02:12:37.350Z,20.62
2019-05-06T02:14:58.895Z,20.60
2019-05-06T02:17:20.718Z,20.59
2019-05-06T02:19:43.843Z,20.57
2019-05-06T02:22:06.027Z,20.56
2019-05-06T02:24:27.580Z,20.56
2019-05-06T02:26:49.278Z,20.57
2019-05-06T02:29:11.160Z,20.60
2019-05-06T02:31:35.168Z,20.63
2019-05-06T02:33:56.056Z,20.66
2019-05-06T02:36:17.718Z,20.67
2019-05-06T02:38:48.087Z,20.71
2019-05-06T02:41:03.444Z,20.74
2019-05-06T02:43:25.547Z,20.76
2019-05-06T02:45:47.102Z,20.79
2019-05-06T02:48:09.327Z,20.80
2019-05-06T02:50:33.790Z,20.82
2019-05-06T02:52:53.932Z,20.83
2019-05-06T02:55:16.146Z,20.83
2019-05-06T02:57:37.740Z,20.84
2019-05-06T02:59:59.467Z,20.84
2019-05-06T03:02:38.110Z,20.83
2019-05-06T03:04:44.130Z,20.83
2019-05-06T03:07:05.616Z,20.82
2019-05-06T03:09:27.496Z,20.82
2019-05-06T03:11:48.649Z,20.80
2019-05-06T03:14:10.206Z,20.81
2019-05-06T03:16:33.357Z,20.78
2019-05-06T03:18:55.561Z,20.77
2019-05-06T03:21:17.463Z,20.77
2019-05-06T03:23:38.970Z,20.77
2019-05-06T03:26:00.163Z,20.75
2019-05-06T03:28:22.635Z,20.73
2019-05-06T03:30:46.036Z,20.74
2019-05-06T03:33:38.384Z,20.70
2019-05-06T03:35:44.113Z,20.71
2019-05-06T03:37:53.888Z,20.71
2019-05-06T03:40:22.908Z,20.67
2019-05-06T03:42:42.841Z,20.67
2019-05-06T03:45:04.428Z,20.65
2019-05-06T03:47:26.516Z,20.64
2019-05-06T03:49:50.142Z,20.63
2019-05-06T03:52:13.617Z,20.62
2019-05-06T03:54:34.605Z,20.59
2019-05-06T03:56:56.314Z,20.59
2019-05-06T03:59:18.378Z,20.58
2019-05-06T04:01:42.949Z,20.57
2019-05-06T04:04:04.017Z,20.56
2019-05-06T04:06:26.381Z,20.54
2019-05-06T04:08:48.462Z,20.53
2019-05-06T04:11:10.313Z,20.52
2019-05-06T04:13:33.270Z,20.53
2019-05-06T04:15:55.178Z,20.56
2019-05-06T04:18:17.285Z,20.59
2019-05-06T04:20:39.039Z,20.61
2019-05-06T04:23:06.015Z,20.63
2019-05-06T04:25:24.232Z,20.66
2019-05-06T04:27:45.816Z,20.67
2019-05-06T04:30:06.941Z,20.69
2019-05-06T04:32:29.122Z,20.70
2019-05-06T04:34:53.210Z,20.72
2019-05-06T04:37:14.473Z,20.75
2019-05-06T04:39:36.115Z,20.77
2019-05-06T04:41:58.278Z,20.77
2019-05-06T04:44:19.336Z,20.77
2019-05-06T04:46:44.029Z,20.78
2019-05-06T04:49:04.481Z,20.79
2019-05-06T04:51:26.474Z,20.78
2019-05-06T04:53:48.636Z,20.79
2019-05-06T04:56:10.121Z,20.78
2019-05-06T04:58:33.525Z,20.77
2019-05-06T05:00:55.349Z,20.64
2019-05-06T05:03:16.830Z,20.54
2019-05-06T05:05:38.493Z,20.48
2019-05-06T05:08:02.474Z,20.44
2019-05-06T05:10:23.455Z,20.40
2019-05-06T05:12:45.956Z,20.26
2019-05-06T05:15:08.306Z,20.21
2019-05-06T05:17:29.861Z,20.13
2019-05-06T05:19:52.310Z,20.02
2019-05-06T05:22:14.765Z,19.96
2019-05-06T05:24:36.455Z,20.00
2019-05-06T05:26:58.208Z,19.99
2019-05-06T05:29:20.164Z,20.03
2019-05-06T05:31:43.565Z,20.20
2019-05-06T05:34:04.532Z,20.27
2019-05-06T05:36:26.251Z,20.29
2019-05-06T05:38:48.332Z,20.39
2019-05-06T05:41:09.649Z,20.46
2019-05-06T05:43:32.626Z,20.54
2019-05-06T05:45:54.122Z,20.65
2019-05-06T05:48:15.864Z,20.70
2019-05-06T05:50:37.737Z,20.76
2019-05-06T05:52:59.741Z,20.78
2019-05-06T05:55:21.948Z,20.80
2019-05-06T05:57:43.391Z,20.84
2019-05-06T06:00:04.801Z,20.88
2019-05-06T06:02:26.770Z,20.91
2019-05-06T06:04:54.774Z,20.92
2019-05-06T06:07:12.173Z,20.94
2019-05-06T06:09:34.321Z,20.96
2019-05-06T06:11:55.598Z,20.94
2019-05-06T06:14:17.944Z,20.97
2019-05-06T06:16:39.013Z,20.98
2019-05-06T06:19:03.099Z,20.99
2019-05-06T06:21:28.036Z,21.01
2019-05-06T06:23:47.789Z,21.01
2019-05-06T06:26:12.149Z,20.97
2019-05-06T06:28:34.634Z,20.94
2019-05-06T06:30:56.474Z,20.93
2019-05-06T06:33:18.180Z,20.92
2019-05-06T06:35:42.522Z,20.91
2019-05-06T06:38:03.690Z,20.90
2019-05-06T06:40:25.325Z,20.91
2019-05-06T06:42:47.500Z,20.95
2019-05-06T06:45:08.747Z,20.94
2019-05-06T06:47:32.027Z,20.96
2019-05-06T06:49:54.545Z,20.97
2019-05-06T06:52:15.903Z,20.99
2019-05-06T06:54:38.409Z,20.97
2019-05-06T06:57:06.159Z,20.99
2019-05-06T06:59:22.802Z,20.98
2019-05-06T07:01:44.402Z,20.98
2019-05-06T07:04:10.625Z,20.96
2019-05-06T07:06:29.290Z,20.97
2019-05-06T07:08:51.800Z,20.98
2019-05-06T07:11:13.895Z,20.99
2019-05-06T07:13:36.103Z,20.98
2019-05-06T07:15:57.369Z,20.96
2019-05-06T07:18:19.080Z,20.97
2019-05-06T07:20:42.942Z,20.98
2019-05-06T07:23:04.478Z,21.04
2019-05-06T07:25:26.157Z,21.09
2019-05-06T07:27:47.556Z,21.12
2019-05-06T07:30:09.171Z,21.16
2019-05-06T07:32:32.604Z,21.20
2019-05-06T07:34:55.371Z,21.23
2019-05-06T07:37:17.464Z,21.24
2019-05-06T07:39:42.806Z,21.29
2019-05-06T07:42:02.906Z,21.32
2019-05-06T07:44:24.997Z,21.33
2019-05-06T07:46:46.807Z,21.36
2019-05-06T07:49:08.969Z,21.38
2019-05-06T07:51:32.379Z,21.38
2019-05-06T07:53:53.058Z,21.37
2019-05-06T07:56:15.477Z,21.40
2019-05-06T07:58:37.106Z,21.39
2019-05-06T08:00:58.451Z,21.40
2019-05-06T08:03:22.213Z,21.40
2019-05-06T08:05:54.622Z,21.43
2019-05-06T08:08:07.823Z,21.41
2019-05-06T08:10:29.716Z,21.38
2019-05-06T08:12:52.675Z,21.37
2019-05-06T08:15:14.561Z,21.36
2019-05-06T08:17:36.410Z,21.34
2019-05-06T08:19:58.205Z,21.35
2019-05-06T08:22:22.565Z,21.33
2019-05-06T08:24:43.506Z,21.32
2019-05-06T08:27:05.219Z,21.32
2019-05-06T08:29:27.529Z,21.30
2019-05-06T08:31:49.187Z,21.28
2019-05-06T08:34:12.286Z,21.28
2019-05-06T08:36:34.506Z,21.28
2019-05-06T08:38:55.550Z,21.27
2019-05-06T08:41:17.211Z,21.25
2019-05-06T08:43:39.242Z,21.23
2019-05-06T08:46:03.255Z,21.24
2019-05-06T08:48:25.695Z,21.23
2019-05-06T08:50:47.583Z,21.23
2019-05-06T08:53:09.574Z,21.23
2019-05-06T08:55:32.604Z,21.23
2019-05-06T08:57:54.736Z,21.22
2019-05-06T09:00:17.562Z,21.20
2019-05-06T09:02:39.043Z,21.19
2019-05-06T09:05:02.913Z,21.18
2019-05-06T09:07:24.609Z,21.22
2019-05-06T09:09:46.670Z,21.27
2019-05-06T09:12:08.700Z,21.32
2019-05-06T09:14:32.630Z,21.36
2019-05-06T09:16:54.083Z,21.42
2019-05-06T09:19:16.031Z,21.47
2019-05-06T09:21:38.161Z,21.47
2019-05-06T09:23:59.294Z,21.54
2019-05-06T09:26:22.430Z,21.56
2019-05-06T09:28:44.393Z,21.59
2019-05-06T09:31:09.441Z,21.57
2019-05-06T09:33:29.084Z,21.58
2019-05-06T09:35:52.849Z,21.57
2019-05-06T09:38:13.637Z,21.58
2019-05-06T09:40:35.342Z,21.58
2019-05-06T09:42:56.739Z,21.58
2019-05-06T09:45:18.961Z,21.59
2019-05-06T09:47:42.402Z,21.59
2019-05-06T09:50:04.567Z,21.62
2019-05-06T09:52:27.061Z,21.61
2019-05-06T09:54:48.878Z,21.63
2019-05-06T09:57:12.888Z,21.64
2019-05-06T09:59:34.763Z,21.61
2019-05-06T10:01:56.011Z,21.57
2019-05-06T10:04:17.509Z,21.53
2019-05-06T10:06:39.065Z,21.49
2019-05-06T10:09:04.799Z,21.48
2019-05-06T10:11:24.032Z,21.45
2019-05-06T10:13:45.896Z,21.43
2019-05-06T10:16:08.099Z,21.41
2019-05-06T10:18:29.788Z,21.36
2019-05-06T10:20:51.778Z,21.33
2019-05-06T10:23:13.499Z,21.33
2019-05-06T10:25:35.496Z,21.32
2019-05-06T10:27:57.427Z,21.29
2019-05-06T10:30:19.406Z,21.29
2019-05-06T10:32:42.642Z,21.27
2019-05-06T10:35:04.801Z,21.27
2019-05-06T10:37:26.976Z,21.24
2019-05-06T10:39:52.062Z,21.25
2019-05-06T10:42:13.477Z,21.23
2019-05-06T10:44:35.618Z,21.21
2019-05-06T10:46:57.295Z,21.14
2019-05-06T10:49:22.485Z,21.14
2019-05-06T10:51:42.838Z,21.17
2019-05-06T10:54:04.756Z,21.21
2019-05-06T10:56:26.550Z,21.28
2019-05-06T10:58:48.411Z,21.34
2019-05-06T11:01:12.491Z,21.38
2019-05-06T11:03:33.425Z,21.44
2019-05-06T11:05:55.541Z,21.48
2019-05-06T11:08:17.295Z,21.54
2019-05-06T11:10:41.490Z,21.54
2019-05-06T11:13:03.464Z,21.58
2019-05-06T11:15:25.373Z,21.60
2019-05-06T11:17:46.662Z,21.63
2019-05-06T11:20:10.580Z,21.66
2019-05-06T11:22:32.730Z,21.64
2019-05-06T11:24:55.851Z,21.62
2019-05-06T11:27:28.892Z,21.61
2019-05-06T11:29:43.552Z,21.60
2019-05-06T11:32:04.936Z,21.56
2019-05-06T11:34:26.583Z,21.53
2019-05-06T11:36:48.020Z,21.49
2019-05-06T11:39:14.021Z,21.49
2019-05-06T11:41:33.625Z,21.45
2019-05-06T11:43:55.992Z,21.42
2019-05-06T11:46:17.361Z,21.41
2019-05-06T11:48:39.282Z,21.41
2019-05-06T11:51:01.058Z,21.38
2019-05-06T11:53:23.133Z,21.39
2019-05-06T11:55:44.342Z,21.38
2019-05-06T11:58:06.955Z,21.37
2019-05-06T12:00:29.050Z,21.37
2019-05-06T12:02:53.157Z,21.40
2019-05-06T12:05:14.068Z,21.39
2019-05-06T12:07:36.037Z,21.38
2019-05-06T12:09:58.353Z,21.38
2019-05-06T12:12:19.724Z,21.42
2019-05-06T12:14:42.963Z,21.41
2019-05-06T12:17:05.029Z,21.38
2019-05-06T12:19:26.458Z,21.36
2019-05-06T12:21:48.394Z,21.36
2019-05-06T12:24:12.112Z,21.36
2019-05-06T12:26:32.756Z,21.36
2019-05-06T12:28:54.489Z,21.34
2019-05-06T12:31:15.784Z,21.34
2019-05-06T12:33:37.775Z,21.34
2019-05-06T12:36:02.436Z,21.32
2019-05-06T12:38:30.438Z,21.31
2019-05-06T12:40:46.261Z,21.31
2019-05-06T12:43:07.983Z,21.30
2019-05-06T12:45:29.046Z,21.28
2019-05-06T12:47:53.394Z,21.24
2019-05-06T12:50:14.758Z,21.24
2019-05-06T12:52:36.030Z,21.23
2019-05-06T12:55:16.367Z,21.26
2019-05-06T12:57:23.384Z,21.37
2019-05-06T12:59:45.448Z,21.43
2019-05-06T13:02:06.597Z,21.48
2019-05-06T13:04:46.298Z,21.54
2019-05-06T13:06:52.201Z,21.55
2019-05-06T13:09:14.463Z,21.57
2019-05-06T13:11:35.864Z,21.59
2019-05-06T13:14:00.770Z,21.63
2019-05-06T13:16:22.827Z,21.64
2019-05-06T13:18:47.338Z,21.65
2019-05-06T13:21:09.552Z,21.67
2019-05-06T13:23:34.631Z,21.68
2019-05-06T13:25:53.988Z,21.66
2019-05-06T13:28:15.841Z,21.69
2019-05-06T13:30:38.264Z,21.70
2019-05-06T13:33:00.164Z,21.73
2019-05-06T13:35:23.133Z,21.74
2019-05-06T13:37:44.518Z,21.79
2019-05-06T13:40:06.602Z,21.79
2019-05-06T13:42:28.505Z,21.73
2019-05-06T13:44:50.176Z,21.68
2019-05-06T13:47:12.185Z,21.65
2019-05-06T13:49:33.875Z,21.57
2019-05-06T13:51:55.777Z,21.56
2019-05-06T13:54:17.591Z,21.60
2019-05-06T13:56:39.733Z,21.59
2019-05-06T14:01:05.805Z,21.58
2019-05-06T14:03:27.378Z,21.56
2019-05-06T14:05:51.948Z,21.58
2019-05-06T14:08:13.115Z,21.57
2019-05-06T14:10:35.125Z,21.59
2019-05-06T14:12:56.459Z,21.60
2019-05-06T14:15:18.297Z,21.59
2019-05-06T14:17:39.389Z,21.60
2019-05-06T14:20:02.636Z,21.57
2019-05-06T14:22:24.558Z,21.56
2019-05-06T14:24:46.305Z,21.57
2019-05-06T14:27:08.640Z,21.61
2019-05-06T14:29:32.877Z,21.64
2019-05-06T14:31:53.658Z,21.65
2019-05-06T14:34:15.941Z,21.65
2019-05-06T14:36:37.407Z,21.67
2019-05-06T14:38:59.303Z,21.62
2019-05-06T14:41:26.071Z,21.59
2019-05-06T14:43:43.953Z,21.57
2019-05-06T14:46:05.262Z,21.60
2019-05-06T14:48:26.409Z,21.60
2019-05-06T14:50:48.742Z,21.60
2019-05-06T14:53:13.027Z,21.63
2019-05-06T14:55:34.776Z,21.67
2019-05-06T14:57:56.557Z,21.72
2019-05-06T15:00:18.335Z,21.78
2019-05-06T15:02:42.720Z,21.78
2019-05-06T15:05:04.037Z,21.74
2019-05-06T15:07:26.043Z,21.69
2019-05-06T15:09:58.600Z,21.68
2019-05-06T15:12:12.945Z,21.74
2019-05-06T15:14:35.011Z,21.79
2019-05-06T15:16:56.711Z,21.84
2019-05-06T15:19:18.218Z,21.85
2019-05-06T15:21:42.521Z,21.88
2019-05-06T15:24:02.801Z,21.88
2019-05-06T15:26:25.134Z,21.85
2019-05-06T15:28:47.039Z,21.91
2019-05-06T15:31:09.335Z,21.91
2019-05-06T15:33:32.910Z,21.90
2019-05-06T15:35:54.174Z,21.92
2019-05-06T15:38:16.310Z,21.90
2019-05-06T15:40:38.182Z,21.92
2019-05-06T15:42:59.711Z,21.91
2019-05-06T15:45:21.964Z,21.91
2019-05-06T15:47:43.656Z,21.92
2019-05-06T15:50:05.683Z,21.90
2019-05-06T15:52:26.735Z,21.82
2019-05-06T15:54:49.468Z,21.80
2019-05-06T15:57:11.978Z,21.79
2019-05-06T15:59:33.765Z,21.78
2019-05-06T16:01:55.807Z,21.76
2019-05-06T16:04:17.764Z,21.69
2019-05-06T16:06:39.402Z,21.67
2019-05-06T16:09:03.546Z,21.64
2019-05-06T16:11:24.799Z,21.61
2019-05-06T16:13:46.738Z,21.58
2019-05-06T16:16:08.197Z,21.51
2019-05-06T16:18:32.576Z,21.48
2019-05-06T16:20:57.267Z,21.45
2019-05-06T16:23:17.109Z,21.39
2019-05-06T16:25:39.859Z,21.39
2019-05-06T16:28:02.281Z,21.40
2019-05-06T16:30:24.578Z,21.42
2019-05-06T16:32:46.490Z,21.47
2019-05-06T16:35:07.917Z,21.51
2019-05-06T16:37:30.078Z,21.51
2019-05-06T16:39:54.160Z,21.53
2019-05-06T16:42:15.840Z,21.58
2019-05-06T16:44:37.691Z,21.62
2019-05-06T16:47:02.941Z,21.65
2019-05-06T16:49:23.640Z,21.69
2019-05-06T16:51:45.323Z,21.70
2019-05-06T16:54:06.951Z,21.73
2019-05-06T16:56:30.047Z,21.74
2019-05-06T16:58:52.543Z,21.75
2019-05-06T17:01:15.284Z,21.74
2019-05-06T17:03:37.668Z,21.74
2019-05-06T17:05:59.476Z,21.72
2019-05-06T17:08:23.370Z,21.71
2019-05-06T17:10:44.171Z,21.72
2019-05-06T17:13:05.927Z,21.68
2019-05-06T17:15:27.935Z,21.64
2019-05-06T17:17:49.383Z,21.63
2019-05-06T17:20:12.203Z,21.62
2019-05-06T17:22:34.463Z,21.61
2019-05-06T17:24:55.890Z,21.60
2019-05-06T17:27:18.034Z,21.58
2019-05-06T17:29:39.856Z,21.56
2019-05-06T17:32:02.539Z,21.54
2019-05-06T17:34:24.422Z,21.54
2019-05-06T17:36:46.021Z,21.52
2019-05-06T17:39:08.161Z,21.47
2019-05-06T17:41:42.462Z,21.45
2019-05-06T17:43:54.162Z,21.43
2019-05-06T17:46:15.855Z,21.41
2019-05-06T17:48:37.281Z,21.42
2019-05-06T17:50:58.897Z,21.44
2019-05-06T17:53:22.865Z,21.43
2019-05-06T17:55:44.642Z,21.42
2019-05-06T17:58:06.558Z,21.40
2019-05-06T18:00:28.280Z,21.39
2019-05-06T18:02:50.231Z,21.40
2019-05-06T18:05:13.108Z,21.41
2019-05-06T18:07:34.667Z,21.39
2019-05-06T18:09:56.245Z,21.39
2019-05-06T18:12:17.883Z,21.41
2019-05-06T18:14:39.513Z,21.40
2019-05-06T18:17:03.432Z,21.40
2019-05-06T18:19:24.401Z,21.39
2019-05-06T18:21:45.828Z,21.36
2019-05-06T18:24:09.870Z,21.38
2019-05-06T18:26:32.781Z,21.40
2019-05-06T18:28:54.398Z,21.39
2019-05-06T18:31:16.584Z,21.43
2019-05-06T18:33:38.160Z,21.41
2019-05-06T18:35:59.933Z,21.38
2019-05-06T18:38:21.916Z,21.38
2019-05-06T18:40:43.584Z,21.38
2019-05-06T18:43:05.474Z,21.39
2019-05-06T18:45:27.277Z,21.41
2019-05-06T18:47:48.947Z,21.45
2019-05-06T18:50:12.399Z,21.50
2019-05-06T18:52:33.889Z,21.56
2019-05-06T18:54:56.403Z,21.59
2019-05-06T18:57:18.423Z,21.63
2019-05-06T18:59:39.757Z,21.66
2019-05-06T19:02:02.129Z,21.68
2019-05-06T19:04:24.158Z,21.71
2019-05-06T19:06:45.771Z,21.74
2019-05-06T19:09:07.284Z,21.78
2019-05-06T19:11:28.791Z,21.79
2019-05-06T19:13:52.516Z,21.79
2019-05-06T19:16:14.333Z,21.79
2019-05-06T19:18:38.690Z,21.82
2019-05-06T19:21:02.522Z,21.81
2019-05-06T19:23:23.085Z,21.83
2019-05-06T19:25:45.093Z,21.85
2019-05-06T19:28:06.430Z,21.86
2019-05-06T19:30:28.699Z,21.85
2019-05-06T19:32:52.701Z,21.87
2019-05-06T19:35:13.864Z,21.86
2019-05-06T19:37:35.490Z,21.87
2019-05-06T19:39:57.575Z,21.84
2019-05-06T19:42:22.201Z,21.85
2019-05-06T19:44:45.447Z,21.83
2019-05-06T19:47:06.650Z,21.82
2019-05-06T19:49:28.869Z,21.81
2019-05-06T19:51:52.258Z,21.82
2019-05-06T19:54:14.032Z,21.82
2019-05-06T19:56:38.085Z,21.81
2019-05-06T19:59:01.979Z,21.80
2019-05-06T20:01:22.953Z,21.79
2019-05-06T20:03:45.013Z,21.78
2019-05-06T20:06:05.879Z,21.77
2019-05-06T20:08:27.751Z,21.77
2019-05-06T20:10:49.316Z,21.76
2019-05-06T20:13:13.358Z,21.75
2019-05-06T20:15:34.285Z,21.74
2019-05-06T20:17:55.543Z,21.73
2019-05-06T20:20:17.603Z,21.71
2019-05-06T20:22:39.095Z,21.72
2019-05-06T20:25:03.100Z,21.70
2019-05-06T20:27:24.717Z,21.72
2019-05-06T20:29:47.416Z,21.72
2019-05-06T20:32:09.098Z,21.72
2019-05-06T20:34:32.063Z,21.71
2019-05-06T20:36:53.585Z,21.70
2019-05-06T20:39:15.841Z,21.71
2019-05-06T20:41:37.612Z,21.68
2019-05-06T20:43:59.282Z,21.67
2019-05-06T20:46:22.714Z,21.69
2019-05-06T20:48:44.481Z,21.67
2019-05-06T20:51:05.993Z,21.66
2019-05-06T20:53:27.834Z,21.66
2019-05-06T20:55:49.969Z,21.65
2019-05-06T20:58:12.222Z,21.67
2019-05-06T21:00:33.881Z,21.70
2019-05-06T21:02:55.279Z,21.76
2019-05-06T21:05:17.085Z,21.82
2019-05-06T21:07:38.946Z,21.85
2019-05-06T21:10:02.272Z,21.89
2019-05-06T21:14:25.464Z,21.96
2019-05-06T21:16:48.248Z,21.93
2019-05-06T21:19:12.426Z,21.96
2019-05-06T21:21:32.969Z,21.98
2019-05-06T21:23:55.084Z,21.98
2019-05-06T21:26:16.860Z,21.98
2019-05-06T21:28:38.667Z,21.98
2019-05-06T21:31:00.165Z,21.98
2019-05-06T21:33:22.119Z,21.98
2019-05-06T21:35:44.306Z,21.97
2019-05-06T21:38:06.066Z,21.97
2019-05-06T21:40:27.868Z,21.96
2019-05-06T21:42:49.603Z,21.96
2019-05-06T21:45:12.519Z,21.96
2019-05-06T21:47:35.006Z,21.94
2019-05-06T21:49:57.078Z,21.94
2019-05-06T21:52:18.903Z,21.94
2019-05-06T21:54:43.254Z,21.93
2019-05-06T21:57:04.529Z,21.91
2019-05-06T21:59:27.014Z,21.89
2019-05-06T22:01:48.865Z,21.88
2019-05-06T22:04:12.845Z,21.87
2019-05-06T22:06:33.668Z,21.85
2019-05-06T22:08:55.452Z,21.84
2019-05-06T22:11:17.470Z,21.83
2019-05-06T22:13:39.197Z,21.82
2019-05-06T22:16:04.343Z,21.81
2019-05-06T22:18:24.239Z,21.78
2019-05-06T22:20:46.510Z,21.77
2019-05-06T22:23:08.797Z,21.75
2019-05-06T22:25:30.037Z,21.74
2019-05-06T22:27:52.165Z,21.72
2019-05-06T22:30:14.251Z,21.70
2019-05-06T22:32:36.365Z,21.68
2019-05-06T22:34:57.916Z,21.68
2019-05-06T22:37:22.007Z,21.66
2019-05-06T22:39:43.680Z,21.64
2019-05-06T22:42:06.171Z,21.62
2019-05-06T22:44:28.030Z,21.60
2019-05-06T22:46:50.061Z,21.59
2019-05-06T22:49:13.156Z,21.56
2019-05-06T22:51:34.162Z,21.51
2019-05-06T22:53:56.655Z,21.47
2019-05-06T22:56:18.958Z,21.44
2019-05-06T22:58:42.813Z,21.42
2019-05-06T23:01:04.895Z,21.40
2019-05-06T23:03:26.779Z,21.39
2019-05-06T23:05:48.399Z,21.36
2019-05-06T23:08:12.154Z,21.33
2019-05-06T23:10:33.862Z,21.34
2019-05-06T23:12:56.343Z,21.34
2019-05-06T23:15:18.281Z,21.36
2019-05-06T23:17:41.965Z,21.40
2019-05-06T23:20:02.495Z,21.46
2019-05-06T23:22:24.432Z,21.51
2019-05-06T23:24:45.963Z,21.55
2019-05-06T23:27:07.698Z,21.57
2019-05-06T23:29:29.284Z,21.58
2019-05-06T23:31:52.098Z,21.61
2019-05-06T23:34:14.149Z,21.60
2019-05-06T23:36:36.541Z,21.61
2019-05-06T23:38:58.634Z,21.61
2019-05-06T23:41:21.925Z,21.62
2019-05-06T23:43:43.731Z,21.63
2019-05-06T23:46:05.694Z,21.62
2019-05-06T23:48:27.605Z,21.61
2019-05-06T23:50:49.190Z,21.62
2019-05-06T23:53:12.331Z,21.61
2019-05-06T23:55:34.110Z,21.62
2019-05-06T23:57:55.860Z,21.60
